Time;durP1;ratioP1;P1;durP2;ratioP2;P2;SDS_P1;SDS_P2;PMS_P1;PMS_P2;Temp;Humidity;BMP_temperature;BMP_pressure;BME280_temperature;BME280_humidity;BME280_pressure;Samples;Min_cycle;Max_cycle;Signal;HPM_P1;HPM_P2
2022/08/30 00:01:04;;;;;;;;;;;19.20;99.90;;;;;;4900679;29;19919;-70
2022/08/30 00:03:33;;;;;;;;;;;19.50;99.90;;;;;;4900373;29;19915;-71
2022/08/30 00:05:59;;;;;;;;;;;19.60;99.90;;;;;;4900444;29;19918;-71
2022/08/30 00:08:26;;;;;;;;;;;19.90;99.90;;;;;;4900266;29;19963;-71
2022/08/30 00:10:53;;;;;;;;;;;20.00;99.90;;;;;;4900469;29;19908;-70
2022/08/30 00:13:20;;;;;;;;;;;20.20;99.90;;;;;;4900266;29;19908;-70
2022/08/30 00:15:47;;;;;;;;;;;20.40;99.90;;;;;;4900231;29;19907;-70
2022/08/30 00:18:16;;;;;;;;;;;20.50;99.90;;;;;;4900317;29;19907;-70
2022/08/30 00:20:44;;;;;;;;;;;20.60;99.90;;;;;;4900286;29;19914;-70
2022/08/30 00:23:11;;;;;;;;;;;20.70;99.90;;;;;;4899752;29;19908;-71
2022/08/30 00:25:38;;;;;;;;;;;20.80;99.90;;;;;;4900056;29;20364;-70
2022/08/30 00:28:05;;;;;;;;;;;20.90;99.90;;;;;;4899325;29;19912;-71
2022/08/30 00:30:31;;;;;;;;;;;21.00;99.90;;;;;;4900104;29;19908;-71
2022/08/30 00:32:58;;;;;;;;;;;21.10;99.90;;;;;;4900202;29;19955;-70
2022/08/30 00:35:25;;;;;;;;;;;21.10;99.90;;;;;;4900246;29;19930;-70
2022/08/30 00:37:51;;;;;;;;;;;21.20;99.90;;;;;;4899646;29;19907;-70
2022/08/30 00:40:19;;;;;;;;;;;21.20;99.90;;;;;;4899599;29;19908;-70
2022/08/30 00:42:47;;;;;;;;;;;21.30;99.90;;;;;;4899650;29;19929;-70
2022/08/30 00:45:21;;;;;;;;;;;21.40;99.90;;;;;;4899692;29;19916;-71
2022/08/30 00:47:47;;;;;;;;;;;21.40;99.90;;;;;;4899668;29;19907;-70
2022/08/30 00:50:16;;;;;;;;;;;21.50;99.80;;;;;;4899415;29;19907;-70
2022/08/30 00:52:45;;;;;;;;;;;21.50;99.90;;;;;;4899467;29;19915;-71
2022/08/30 00:55:13;;;;;;;;;;;21.60;99.20;;;;;;4898111;29;19959;-70
2022/08/30 00:57:41;;;;;;;;;;;21.60;99.40;;;;;;4899478;29;20404;-70
2022/08/30 01:00:08;;;;;;;;;;;21.70;99.40;;;;;;4899457;29;19915;-71
2022/08/30 01:02:34;;;;;;;;;;;21.70;99.30;;;;;;4899447;29;20284;-71
2022/08/30 01:05:02;;;;;;;;;;;21.80;99.10;;;;;;4899518;29;19952;-70
2022/08/30 01:07:29;;;;;;;;;;;21.80;98.90;;;;;;4899059;29;20365;-72
2022/08/30 01:09:55;;;;;;;;;;;21.90;99.10;;;;;;4898947;29;19908;-71
2022/08/30 01:12:22;;;;;;;;;;;22.00;98.90;;;;;;4899042;29;19911;-69
2022/08/30 01:14:49;;;;;;;;;;;22.10;98.60;;;;;;4899165;29;20376;-71
2022/08/30 01:17:16;;;;;;;;;;;22.20;98.60;;;;;;4898757;29;20383;-70
2022/08/30 01:19:46;;;;;;;;;;;22.20;98.20;;;;;;4898946;29;20272;-71
2022/08/30 01:22:20;;;;;;;;;;;22.30;98.30;;;;;;4898829;29;19911;-72
2022/08/30 01:24:48;;;;;;;;;;;22.40;98.10;;;;;;4898604;29;19963;-70
2022/08/30 01:27:15;;;;;;;;;;;22.40;98.10;;;;;;4897334;29;19962;-71
2022/08/30 01:29:43;;;;;;;;;;;22.50;98.20;;;;;;4898958;29;19908;-71
2022/08/30 01:32:22;;;;;;;;;;;22.50;98.00;;;;;;4898951;29;19908;-69
2022/08/30 01:34:48;;;;;;;;;;;22.60;97.80;;;;;;4898775;29;19959;-71
2022/08/30 01:37:16;;;;;;;;;;;22.70;97.70;;;;;;4898678;29;19969;-71
2022/08/30 01:39:45;;;;;;;;;;;22.80;97.50;;;;;;4897511;29;19911;-71
2022/08/30 01:42:12;;;;;;;;;;;22.90;97.70;;;;;;4898594;29;19915;-70
2022/08/30 01:44:38;;;;;;;;;;;23.00;97.00;;;;;;4898149;29;19919;-70
2022/08/30 01:47:05;;;;;;;;;;;23.10;97.10;;;;;;4898215;29;19959;-71
2022/08/30 01:49:32;;;;;;;;;;;23.20;96.60;;;;;;4898693;29;20006;-71
2022/08/30 01:51:58;;;;;;;;;;;23.20;96.60;;;;;;4898410;29;19908;-71
2022/08/30 01:54:25;;;;;;;;;;;23.40;96.40;;;;;;4898333;29;19929;-72
2022/08/30 01:56:51;;;;;;;;;;;23.40;95.90;;;;;;4898348;29;19911;-70
2022/08/30 01:59:29;;;;;;;;;;;23.40;96.10;;;;;;5110353;27;19918;-70
2022/08/30 02:01:55;;;;;;;;;;;23.50;96.00;;;;;;5110286;28;20276;-70
2022/08/30 02:04:22;;;;;;;;;;;23.50;95.70;;;;;;5110324;28;19908;-69
2022/08/30 02:06:49;;;;;;;;;;;23.60;95.60;;;;;;5110312;28;19912;-70
2022/08/30 02:09:16;;;;;;;;;;;23.60;95.70;;;;;;5110330;28;19961;-70
2022/08/30 02:11:43;;;;;;;;;;;23.80;95.60;;;;;;5110279;28;19908;-69
2022/08/30 02:14:10;;;;;;;;;;;23.80;95.20;;;;;;5110292;28;20364;-69
2022/08/30 02:16:37;;;;;;;;;;;23.80;95.00;;;;;;5110151;28;19961;-69
2022/08/30 02:19:04;;;;;;;;;;;23.90;95.20;;;;;;5110314;28;19916;-69
2022/08/30 02:21:30;;;;;;;;;;;24.00;94.90;;;;;;5110321;28;19999;-69
2022/08/30 02:23:57;;;;;;;;;;;24.00;95.10;;;;;;5110065;28;19908;-69
2022/08/30 02:26:25;;;;;;;;;;;24.30;94.80;;;;;;5109859;28;20291;-69
2022/08/30 02:28:52;;;;;;;;;;;24.40;94.80;;;;;;5108583;28;19908;-69
2022/08/30 02:31:20;;;;;;;;;;;24.40;94.20;;;;;;5109878;28;19908;-69
2022/08/30 02:33:47;;;;;;;;;;;24.40;93.90;;;;;;5108333;28;19916;-69
2022/08/30 02:36:14;;;;;;;;;;;24.50;94.20;;;;;;5109782;28;19919;-70
2022/08/30 02:38:41;;;;;;;;;;;24.60;93.90;;;;;;5109538;28;20405;-69
2022/08/30 02:41:07;;;;;;;;;;;24.70;93.40;;;;;;5109575;28;19965;-70
2022/08/30 02:43:34;;;;;;;;;;;24.90;92.90;;;;;;5109936;28;19908;-69
2022/08/30 02:46:01;;;;;;;;;;;25.10;92.90;;;;;;5109474;28;19908;-69
2022/08/30 02:48:27;;;;;;;;;;;25.30;92.10;;;;;;5109636;28;19919;-69
2022/08/30 02:50:54;;;;;;;;;;;25.60;92.40;;;;;;5109374;28;19966;-69
2022/08/30 02:53:21;;;;;;;;;;;26.00;91.40;;;;;;5109390;28;19908;-70
2022/08/30 02:55:48;;;;;;;;;;;26.40;91.00;;;;;;5107819;28;20007;-70
2022/08/30 02:58:15;;;;;;;;;;;26.80;90.10;;;;;;5119964;28;19972;-70
2022/08/30 03:00:42;;;;;;;;;;;27.00;90.30;;;;;;5129899;28;19998;-69
2022/08/30 03:03:08;;;;;;;;;;;26.90;89.00;;;;;;5129447;28;20412;-69
2022/08/30 03:05:35;;;;;;;;;;;27.00;88.80;;;;;;5129513;28;19907;-70
2022/08/30 03:08:02;;;;;;;;;;;27.00;88.40;;;;;;5129452;28;19951;-71
2022/08/30 03:10:28;;;;;;;;;;;27.20;88.20;;;;;;5117585;28;19908;-70
2022/08/30 03:12:55;;;;;;;;;;;27.50;87.60;;;;;;5115761;28;19914;-72
2022/08/30 03:15:24;;;;;;;;;;;27.80;85.90;;;;;;5115527;28;19915;-71
2022/08/30 03:17:52;;;;;;;;;;;27.80;85.00;;;;;;5115673;28;19911;-70
2022/08/30 03:20:19;;;;;;;;;;;28.00;85.00;;;;;;5115933;28;19943;-70
2022/08/30 03:22:46;;;;;;;;;;;28.10;84.00;;;;;;5115949;28;19908;-71
2022/08/30 03:25:12;;;;;;;;;;;28.40;83.10;;;;;;5115441;28;20002;-70
2022/08/30 03:27:39;;;;;;;;;;;28.60;82.60;;;;;;5115703;28;19908;-70
2022/08/30 03:30:06;;;;;;;;;;;28.60;83.50;;;;;;5115965;28;19907;-70
2022/08/30 03:32:33;;;;;;;;;;;28.70;82.40;;;;;;5097201;28;19908;-70
2022/08/30 03:35:00;;;;;;;;;;;29.00;82.40;;;;;;5115527;28;20053;-70
2022/08/30 03:37:27;;;;;;;;;;;29.30;81.20;;;;;;5115276;28;20359;-70
2022/08/30 03:39:54;;;;;;;;;;;29.10;81.40;;;;;;5115422;28;19911;-71
2022/08/30 03:42:21;;;;;;;;;;;29.20;81.50;;;;;;5115407;28;20002;-71
2022/08/30 03:44:47;;;;;;;;;;;29.80;79.40;;;;;;5115112;28;19911;-71
2022/08/30 03:47:14;;;;;;;;;;;29.60;79.10;;;;;;5114962;28;19917;-70
2022/08/30 03:49:41;;;;;;;;;;;29.50;79.20;;;;;;5115342;28;20049;-71
2022/08/30 03:52:07;;;;;;;;;;;29.20;78.80;;;;;;5115424;28;20384;-70
2022/08/30 03:54:34;;;;;;;;;;;29.00;79.50;;;;;;5114936;28;19908;-70
2022/08/30 03:57:01;;;;;;;;;;;29.00;79.80;;;;;;5114812;28;19915;-71
2022/08/30 03:59:27;;;;;;;;;;;29.10;80.70;;;;;;5114408;28;20370;-71
2022/08/30 04:01:54;;;;;;;;;;;29.40;79.30;;;;;;5114582;28;19915;-70
2022/08/30 04:04:20;;;;;;;;;;;29.20;78.50;;;;;;5114718;28;19915;-71
2022/08/30 04:06:47;;;;;;;;;;;29.30;78.60;;;;;;5114834;28;20360;-71
2022/08/30 04:09:14;;;;;;;;;;;29.40;77.20;;;;;;5114755;28;19912;-70
2022/08/30 04:11:41;;;;;;;;;;;29.40;77.40;;;;;;5114787;28;19911;-72
2022/08/30 04:14:08;;;;;;;;;;;29.10;78.90;;;;;;5114896;28;19912;-70
2022/08/30 04:16:34;;;;;;;;;;;29.00;78.50;;;;;;5096337;28;20321;-70
2022/08/30 04:19:01;;;;;;;;;;;28.80;78.40;;;;;;5114373;28;19920;-70
2022/08/30 04:21:27;;;;;;;;;;;28.30;78.50;;;;;;5113614;28;19998;-70
2022/08/30 04:23:54;;;;;;;;;;;28.30;80.00;;;;;;5114458;28;20004;-72
2022/08/30 04:26:21;;;;;;;;;;;28.70;77.80;;;;;;5095972;28;19933;-70
2022/08/30 04:28:47;;;;;;;;;;;28.80;78.30;;;;;;5114745;28;19912;-71
2022/08/30 04:31:15;;;;;;;;;;;28.90;78.30;;;;;;5114362;28;19919;-71
2022/08/30 04:33:42;;;;;;;;;;;28.70;79.50;;;;;;5114163;28;19908;-71
2022/08/30 04:36:09;;;;;;;;;;;29.00;78.50;;;;;;5113834;28;20002;-71
2022/08/30 04:38:36;;;;;;;;;;;29.20;78.20;;;;;;5114215;28;19915;-71
2022/08/30 04:41:08;;;;;;;;;;;29.80;78.30;;;;;;5114037;28;19912;-72
2022/08/30 04:43:34;;;;;;;;;;;29.90;76.80;;;;;;5113918;28;19908;-71
2022/08/30 04:46:04;;;;;;;;;;;30.00;75.30;;;;;;5113001;28;19908;-71
2022/08/30 04:48:30;;;;;;;;;;;29.60;75.70;;;;;;5112872;28;19908;-70
2022/08/30 04:50:57;;;;;;;;;;;29.20;76.50;;;;;;5113267;28;19912;-72
2022/08/30 04:53:24;;;;;;;;;;;29.20;76.10;;;;;;5113296;28;20002;-71
2022/08/30 04:55:50;;;;;;;;;;;28.80;77.50;;;;;;5113373;28;19914;-72
2022/08/30 04:58:17;;;;;;;;;;;28.90;77.30;;;;;;5113211;28;20367;-71
2022/08/30 05:00:43;;;;;;;;;;;28.90;77.40;;;;;;5113530;28;19990;-72
2022/08/30 05:03:11;;;;;;;;;;;29.20;76.70;;;;;;5113761;28;20258;-71
2022/08/30 05:05:41;;;;;;;;;;;29.40;74.50;;;;;;5113195;28;19951;-71
2022/08/30 05:08:11;;;;;;;;;;;29.50;75.50;;;;;;5113614;28;19911;-71
2022/08/30 05:10:39;;;;;;;;;;;29.60;75.70;;;;;;5113628;28;20354;-72
2022/08/30 05:13:06;;;;;;;;;;;29.80;76.10;;;;;;5113700;28;20326;-69
2022/08/30 05:15:33;;;;;;;;;;;29.80;75.00;;;;;;5113528;28;19908;-69
2022/08/30 05:17:59;;;;;;;;;;;29.50;75.80;;;;;;5109951;28;19981;-70
2022/08/30 05:20:26;;;;;;;;;;;29.50;76.10;;;;;;5112877;28;19912;-70
2022/08/30 05:22:53;;;;;;;;;;;29.70;76.20;;;;;;5113142;28;19959;-69
2022/08/30 05:25:23;;;;;;;;;;;30.20;75.50;;;;;;5112650;28;19912;-70
2022/08/30 05:27:50;;;;;;;;;;;30.30;73.80;;;;;;5109484;28;20011;-70
2022/08/30 05:30:17;;;;;;;;;;;30.60;73.40;;;;;;5094311;28;20267;-70
2022/08/30 05:32:44;;;;;;;;;;;30.80;73.80;;;;;;5112930;28;19908;-69
2022/08/30 05:35:12;;;;;;;;;;;31.00;73.80;;;;;;5112932;28;19932;-69
2022/08/30 05:37:39;;;;;;;;;;;31.10;73.40;;;;;;5112271;28;20260;-69
2022/08/30 05:40:07;;;;;;;;;;;31.30;72.50;;;;;;5112241;28;20004;-69
2022/08/30 05:42:34;;;;;;;;;;;31.00;71.40;;;;;;5112722;28;19942;-69
2022/08/30 05:45:01;;;;;;;;;;;30.80;73.10;;;;;;5112655;28;19915;-68
2022/08/30 05:47:28;;;;;;;;;;;30.80;74.00;;;;;;5112907;28;19974;-67
2022/08/30 05:49:54;;;;;;;;;;;30.60;73.10;;;;;;5112866;28;20347;-67
2022/08/30 05:52:21;;;;;;;;;;;30.50;73.70;;;;;;5106711;28;19914;-68
2022/08/30 05:54:52;;;;;;;;;;;30.30;73.50;;;;;;5110532;28;19908;-70
2022/08/30 05:57:18;;;;;;;;;;;30.40;74.00;;;;;;5100438;28;19981;-68
2022/08/30 05:59:45;;;;;;;;;;;30.70;74.00;;;;;;5092034;28;19915;-68
2022/08/30 06:02:12;;;;;;;;;;;30.70;72.60;;;;;;5091679;28;20416;-68
2022/08/30 06:04:39;;;;;;;;;;;30.50;74.10;;;;;;5109564;28;20420;-68
2022/08/30 06:07:05;;;;;;;;;;;30.60;72.70;;;;;;5112368;28;19934;-68
2022/08/30 06:09:32;;;;;;;;;;;30.30;73.70;;;;;;5112283;28;19908;-69
2022/08/30 06:11:59;;;;;;;;;;;30.30;73.20;;;;;;5112561;28;19951;-68
2022/08/30 06:14:25;;;;;;;;;;;29.40;74.60;;;;;;5112450;28;19915;-69
2022/08/30 06:16:52;;;;;;;;;;;29.40;74.90;;;;;;5112557;28;19959;-69
2022/08/30 06:19:19;;;;;;;;;;;29.20;75.30;;;;;;5112418;28;19916;-70
2022/08/30 06:21:49;;;;;;;;;;;29.40;74.80;;;;;;5112936;28;19954;-70
2022/08/30 06:24:16;;;;;;;;;;;29.30;75.50;;;;;;5112265;28;20006;-70
2022/08/30 06:26:44;;;;;;;;;;;29.30;75.00;;;;;;5111881;28;19908;-71
2022/08/30 06:29:13;;;;;;;;;;;29.10;75.10;;;;;;5112437;28;19914;-70
2022/08/30 06:31:40;;;;;;;;;;;29.00;75.30;;;;;;5112198;28;19923;-70
2022/08/30 06:34:06;;;;;;;;;;;28.70;76.10;;;;;;5112501;28;19908;-71
2022/08/30 06:36:33;;;;;;;;;;;28.60;76.70;;;;;;5104238;28;19908;-70
2022/08/30 06:39:00;;;;;;;;;;;28.80;76.70;;;;;;5110884;28;20481;-69
2022/08/30 06:41:27;;;;;;;;;;;28.70;76.50;;;;;;5093711;28;19939;-70
2022/08/30 06:43:55;;;;;;;;;;;28.80;76.30;;;;;;5112190;28;20322;-70
2022/08/30 06:46:23;;;;;;;;;;;28.60;76.50;;;;;;5104282;28;19908;-69
2022/08/30 06:48:50;;;;;;;;;;;28.10;77.80;;;;;;5095308;28;19915;-70
2022/08/30 06:51:25;;;;;;;;;;;28.30;77.70;;;;;;5095100;28;19916;-69
2022/08/30 06:53:52;;;;;;;;;;;27.90;77.30;;;;;;5095404;28;19931;-70
2022/08/30 06:56:19;;;;;;;;;;;27.50;78.70;;;;;;5094914;28;19927;-70
2022/08/30 06:58:47;;;;;;;;;;;27.00;80.10;;;;;;5099103;28;19926;-68
2022/08/30 07:01:17;;;;;;;;;;;26.50;80.40;;;;;;5115813;28;20006;-69
2022/08/30 07:03:44;;;;;;;;;;;25.90;82.10;;;;;;5115128;28;19908;-69
2022/08/30 07:06:10;;;;;;;;;;;25.40;83.10;;;;;;5094730;28;19938;-70
2022/08/30 07:08:38;;;;;;;;;;;24.90;84.70;;;;;;5095210;28;19916;-68
2022/08/30 07:11:06;;;;;;;;;;;24.50;85.80;;;;;;5078710;28;20368;-70
2022/08/30 07:13:33;;;;;;;;;;;24.20;86.80;;;;;;5095025;28;19915;-70
2022/08/30 07:16:00;;;;;;;;;;;24.00;87.10;;;;;;5094340;28;19908;-71
2022/08/30 07:21:13;;;;;;;;;;;23.50;88.10;;;;;;5094898;28;19915;-69
2022/08/30 07:23:39;;;;;;;;;;;23.30;88.30;;;;;;5094740;28;20370;-69
2022/08/30 07:26:07;;;;;;;;;;;23.10;89.20;;;;;;5094254;28;19948;-70
2022/08/30 07:28:36;;;;;;;;;;;22.90;89.20;;;;;;5094520;28;20439;-70
2022/08/30 07:31:03;;;;;;;;;;;22.90;89.40;;;;;;5094178;28;19908;-71
2022/08/30 07:33:30;;;;;;;;;;;22.80;89.60;;;;;;5094798;28;19955;-70
2022/08/30 07:35:58;;;;;;;;;;;22.70;88.70;;;;;;5094191;28;19916;-71
2022/08/30 07:38:25;;;;;;;;;;;22.60;88.80;;;;;;5094512;28;19916;-69
2022/08/30 07:40:52;;;;;;;;;;;22.50;86.50;;;;;;5094586;28;19915;-69
2022/08/30 07:43:18;;;;;;;;;;;22.40;87.40;;;;;;5094347;28;19923;-70
2022/08/30 07:45:45;;;;;;;;;;;22.30;86.70;;;;;;5094268;28;20364;-71
2022/08/30 07:48:12;;;;;;;;;;;22.10;72.20;;;;;;5101912;28;19923;-70
2022/08/30 07:50:43;;;;;;;;;;;21.90;70.40;;;;;;5097218;28;20342;-68
2022/08/30 07:53:09;;;;;;;;;;;21.90;72.30;;;;;;5095656;28;19953;-68
2022/08/30 07:55:36;;;;;;;;;;;21.80;69.40;;;;;;5105237;28;19959;-70
2022/08/30 07:58:03;;;;;;;;;;;21.80;71.50;;;;;;5093400;28;19920;-68
2022/08/30 08:00:29;;;;;;;;;;;21.70;70.60;;;;;;5093718;28;19912;-68
2022/08/30 08:02:56;;;;;;;;;;;21.60;72.40;;;;;;5108025;28;19954;-69
2022/08/30 08:05:23;;;;;;;;;;;21.40;70.00;;;;;;5110526;28;19970;-70
2022/08/30 08:07:49;;;;;;;;;;;21.30;71.00;;;;;;5097409;28;19973;-68
2022/08/30 08:10:17;;;;;;;;;;;21.20;75.50;;;;;;5113854;28;19939;-69
2022/08/30 08:12:44;;;;;;;;;;;21.10;74.20;;;;;;5114046;28;19908;-69
2022/08/30 08:15:11;;;;;;;;;;;20.90;74.40;;;;;;5112933;28;19908;-68
2022/08/30 08:17:37;;;;;;;;;;;20.80;73.40;;;;;;5094032;28;20024;-69
2022/08/30 08:20:04;;;;;;;;;;;20.70;69.90;;;;;;5093387;28;19947;-69
2022/08/30 08:22:31;;;;;;;;;;;20.70;69.30;;;;;;5093552;28;19908;-69
2022/08/30 08:24:57;;;;;;;;;;;20.70;66.70;;;;;;5093521;28;19912;-70
2022/08/30 08:27:24;;;;;;;;;;;20.60;65.30;;;;;;5093190;28;20026;-68
2022/08/30 08:29:50;;;;;;;;;;;20.60;66.70;;;;;;5093279;28;19916;-73
2022/08/30 08:32:17;;;;;;;;;;;20.60;66.50;;;;;;5113086;28;19916;-70
2022/08/30 08:34:44;;;;;;;;;;;20.50;66.50;;;;;;5114245;28;19907;-69
2022/08/30 08:37:10;;;;;;;;;;;20.50;67.10;;;;;;5097952;28;20256;-67
2022/08/30 08:39:37;;;;;;;;;;;20.40;66.50;;;;;;5093096;28;20030;-70
2022/08/30 08:42:07;;;;;;;;;;;20.40;67.10;;;;;;5092526;28;19912;-68
2022/08/30 08:44:38;;;;;;;;;;;20.30;66.70;;;;;;5093094;28;19909;-70
2022/08/30 08:47:10;;;;;;;;;;;20.20;67.20;;;;;;5104974;28;19919;-72
2022/08/30 08:49:38;;;;;;;;;;;20.10;68.70;;;;;;5093401;28;19919;-71
2022/08/30 08:54:55;;;;;;;;;;;20.00;68.60;;;;;;5093088;28;19961;-71
2022/08/30 08:57:22;;;;;;;;;;;20.00;69.90;;;;;;5093989;28;19912;-71
2022/08/30 08:59:52;;;;;;;;;;;20.00;69.40;;;;;;5092844;28;19916;-72
2022/08/30 09:02:25;;;;;;;;;;;19.90;68.10;;;;;;5092642;28;20057;-70
2022/08/30 09:04:59;;;;;;;;;;;19.80;69.10;;;;;;5103977;28;19912;-70
2022/08/30 09:07:29;;;;;;;;;;;19.70;68.60;;;;;;5091543;28;20014;-70
2022/08/30 09:09:59;;;;;;;;;;;19.60;69.90;;;;;;5092234;28;19920;-68
2022/08/30 09:12:26;;;;;;;;;;;19.60;69.90;;;;;;5099577;28;19912;-68
2022/08/30 09:14:54;;;;;;;;;;;19.50;69.20;;;;;;5101220;28;20387;-68
2022/08/30 09:17:22;;;;;;;;;;;19.40;69.60;;;;;;5092344;28;19958;-69
2022/08/30 09:19:51;;;;;;;;;;;19.40;70.00;;;;;;5092739;28;19909;-69
2022/08/30 09:22:25;;;;;;;;;;;19.40;70.50;;;;;;5092794;28;20003;-67
2022/08/30 09:24:59;;;;;;;;;;;19.40;72.40;;;;;;5103574;28;19921;-70
2022/08/30 09:27:26;;;;;;;;;;;19.30;73.50;;;;;;5091612;28;19915;-68
2022/08/30 09:30:28;;;;;;;;;;;19.20;73.50;;;;;;5092413;28;20007;-68
2022/08/30 09:32:59;;;;;;;;;;;19.10;73.20;;;;;;5041158;28;19920;-69
2022/08/30 09:35:35;;;;;;;;;;;19.00;74.60;;;;;;5098349;28;19923;-67
2022/08/30 09:38:17;;;;;;;;;;;18.90;75.10;;;;;;5108467;28;19973;-68
2022/08/30 09:40:45;;;;;;;;;;;18.80;75.40;;;;;;5113104;28;19940;-68
2022/08/30 09:43:12;;;;;;;;;;;18.80;75.60;;;;;;5110798;28;19911;-69
2022/08/30 09:45:40;;;;;;;;;;;18.70;74.90;;;;;;5088803;28;19908;-70
2022/08/30 09:48:27;;;;;;;;;;;18.60;74.90;;;;;;5091714;28;19959;-68
2022/08/30 09:50:58;;;;;;;;;;;18.60;74.70;;;;;;5092066;28;19916;-69
2022/08/30 09:53:27;;;;;;;;;;;18.50;74.90;;;;;;5092495;28;20285;-68
2022/08/30 09:56:06;;;;;;;;;;;18.50;73.80;;;;;;5090659;28;19918;-71
2022/08/30 09:58:51;;;;;;;;;;;18.50;72.90;;;;;;5091470;28;19920;-67
2022/08/30 10:01:28;;;;;;;;;;;18.50;73.00;;;;;;5106278;28;20421;-68
2022/08/30 10:04:01;;;;;;;;;;;18.40;73.30;;;;;;5097645;28;19967;-70
2022/08/30 10:06:36;;;;;;;;;;;18.40;73.30;;;;;;5091892;28;19919;-70
2022/08/30 10:09:02;;;;;;;;;;;18.40;73.50;;;;;;5091579;28;19908;-70
2022/08/30 10:11:44;;;;;;;;;;;18.40;74.90;;;;;;5092012;28;19919;-67
2022/08/30 10:14:26;;;;;;;;;;;18.40;73.40;;;;;;5107478;28;19915;-68
2022/08/30 10:16:58;;;;;;;;;;;18.40;75.70;;;;;;5095746;28;19908;-70
2022/08/30 10:19:43;;;;;;;;;;;18.20;74.90;;;;;;5092046;28;19971;-70
2022/08/30 10:22:19;;;;;;;;;;;18.20;74.30;;;;;;5095195;28;19927;-68
2022/08/30 10:24:47;;;;;;;;;;;18.20;74.20;;;;;;5087222;28;19995;-69
2022/08/30 10:27:17;;;;;;;;;;;18.20;74.90;;;;;;5101797;28;19918;-68
2022/08/30 10:29:44;;;;;;;;;;;18.00;74.60;;;;;;5106826;28;20000;-70
2022/08/30 10:32:20;;;;;;;;;;;18.00;75.80;;;;;;5115024;28;19911;-68
2022/08/30 10:34:54;;;;;;;;;;;18.00;75.20;;;;;;5110125;28;19908;-68
2022/08/30 10:37:24;;;;;;;;;;;18.00;76.10;;;;;;5099804;28;20395;-68
2022/08/30 10:39:53;;;;;;;;;;;18.00;76.00;;;;;;5095285;28;19920;-69
2022/08/30 10:42:20;;;;;;;;;;;17.90;77.60;;;;;;5095295;28;19951;-67
2022/08/30 10:44:57;;;;;;;;;;;17.90;76.80;;;;;;5100527;28;19922;-67
2022/08/30 10:47:32;;;;;;;;;;;17.90;77.40;;;;;;5112891;28;19966;-70
2022/08/30 10:50:04;;;;;;;;;;;17.80;77.50;;;;;;5112725;28;19919;-67
2022/08/30 10:52:46;;;;;;;;;;;17.80;76.60;;;;;;5111124;28;20043;-68
2022/08/30 10:55:15;;;;;;;;;;;17.70;77.30;;;;;;5113363;28;20356;-68
2022/08/30 10:57:44;;;;;;;;;;;17.70;77.00;;;;;;5114085;28;20417;-67
2022/08/30 11:00:12;;;;;;;;;;;17.60;77.20;;;;;;5114234;28;19961;-67
2022/08/30 11:02:57;;;;;;;;;;;17.60;77.70;;;;;;5115034;28;19912;-68
2022/08/30 11:05:23;;;;;;;;;;;17.60;79.00;;;;;;5097438;28;19907;-67
2022/08/30 11:08:00;;;;;;;;;;;17.50;78.30;;;;;;5114927;28;19998;-69
2022/08/30 11:10:26;;;;;;;;;;;17.40;78.10;;;;;;5097593;28;19914;-68
2022/08/30 11:12:53;;;;;;;;;;;17.40;78.70;;;;;;5097351;28;19999;-70
2022/08/30 11:15:22;;;;;;;;;;;17.40;78.70;;;;;;5115706;28;19912;-69
2022/08/30 11:17:59;;;;;;;;;;;17.30;78.70;;;;;;5100623;28;20015;-68
2022/08/30 11:20:35;;;;;;;;;;;17.30;78.90;;;;;;5101035;28;19919;-69
2022/08/30 11:23:20;;;;;;;;;;;17.20;79.20;;;;;;5115513;28;19912;-68
2022/08/30 11:25:49;;;;;;;;;;;17.20;79.80;;;;;;5115158;28;19908;-67
2022/08/30 11:28:34;;;;;;;;;;;17.10;79.90;;;;;;5094917;28;20015;-67
2022/08/30 11:31:27;;;;;;;;;;;17.10;80.00;;;;;;5094318;28;19908;-68
2022/08/30 11:33:58;;;;;;;;;;;17.00;81.00;;;;;;5092781;28;20257;-68
2022/08/30 11:36:31;;;;;;;;;;;17.00;81.30;;;;;;5097925;28;19912;-69
2022/08/30 11:38:57;;;;;;;;;;;16.90;81.70;;;;;;5115165;28;19924;-69
2022/08/30 11:41:30;;;;;;;;;;;16.90;82.50;;;;;;5114356;28;20010;-68
2022/08/30 11:44:16;;;;;;;;;;;16.80;81.70;;;;;;5115073;28;19908;-69
2022/08/30 11:46:43;;;;;;;;;;;16.80;81.80;;;;;;5103375;28;19938;-68
2022/08/30 11:49:15;;;;;;;;;;;16.70;82.40;;;;;;5114824;28;19953;-70
2022/08/30 11:51:52;;;;;;;;;;;16.60;82.90;;;;;;5100744;28;20374;-69
2022/08/30 11:54:19;;;;;;;;;;;16.50;83.10;;;;;;5094745;28;19959;-68
2022/08/30 11:56:57;;;;;;;;;;;16.50;83.30;;;;;;5094520;28;19937;-69
2022/08/30 11:59:32;;;;;;;;;;;16.50;84.10;;;;;;5094193;28;19962;-68
2022/08/30 12:02:00;;;;;;;;;;;16.50;83.60;;;;;;5077064;28;19958;-69
2022/08/30 12:04:34;;;;;;;;;;;16.50;84.10;;;;;;5094628;28;19941;-68
2022/08/30 12:07:05;;;;;;;;;;;16.40;84.30;;;;;;5094471;28;19912;-68
2022/08/30 12:09:54;;;;;;;;;;;16.40;84.30;;;;;;5094247;28;19909;-68
2022/08/30 12:12:30;;;;;;;;;;;16.30;84.90;;;;;;5094538;28;20272;-68
2022/08/30 12:14:56;;;;;;;;;;;16.30;84.90;;;;;;5104254;28;19912;-69
2022/08/30 12:20:15;;;;;;;;;;;16.40;84.70;;;;;;5111914;28;19961;-70
2022/08/30 12:22:42;;;;;;;;;;;16.30;84.90;;;;;;5108044;28;19968;-69
2022/08/30 12:25:23;;;;;;;;;;;16.40;84.70;;;;;;5113179;28;20268;-69
2022/08/30 12:27:50;;;;;;;;;;;16.30;84.80;;;;;;5111938;28;20006;-70
2022/08/30 12:30:25;;;;;;;;;;;16.30;85.00;;;;;;5109688;28;19951;-69
2022/08/30 12:32:51;;;;;;;;;;;16.20;85.20;;;;;;5112764;28;19908;-69
2022/08/30 12:35:20;;;;;;;;;;;16.30;86.50;;;;;;5111977;28;19916;-69
2022/08/30 12:37:55;;;;;;;;;;;16.30;86.00;;;;;;5113139;28;20014;-68
2022/08/30 12:40:22;;;;;;;;;;;16.20;86.30;;;;;;5110136;28;19963;-69
2022/08/30 12:42:53;;;;;;;;;;;16.20;86.60;;;;;;5112074;28;20376;-69
2022/08/30 12:45:22;;;;;;;;;;;16.20;86.60;;;;;;5109924;28;20002;-68
2022/08/30 12:47:52;;;;;;;;;;;16.10;86.90;;;;;;5112406;28;19948;-69
2022/08/30 12:50:25;;;;;;;;;;;16.10;86.90;;;;;;5111750;28;19916;-69
2022/08/30 12:53:17;;;;;;;;;;;16.00;87.30;;;;;;5092008;28;19926;-68
2022/08/30 12:55:58;;;;;;;;;;;16.00;87.30;;;;;;5088962;28;19915;-70
2022/08/30 12:58:42;;;;;;;;;;;16.00;87.40;;;;;;5110581;28;20380;-70
2022/08/30 13:01:26;;;;;;;;;;;15.90;87.80;;;;;;5110072;28;19912;-68
2022/08/30 13:04:12;;;;;;;;;;;15.90;87.90;;;;;;5111921;28;19973;-72
2022/08/30 13:06:49;;;;;;;;;;;15.90;88.00;;;;;;5112564;28;19908;-69
2022/08/30 13:09:34;;;;;;;;;;;15.90;88.00;;;;;;5111907;28;19950;-68
2022/08/30 13:12:02;;;;;;;;;;;15.80;87.80;;;;;;5109371;28;19916;-69
2022/08/30 13:14:35;;;;;;;;;;;15.80;88.60;;;;;;5112384;28;19953;-68
2022/08/30 13:17:21;;;;;;;;;;;15.80;88.40;;;;;;5109858;28;19912;-68
2022/08/30 13:20:13;;;;;;;;;;;15.80;88.60;;;;;;5110433;28;19961;-69
2022/08/30 13:22:41;;;;;;;;;;;15.70;89.50;;;;;;5105573;28;19918;-70
2022/08/30 13:25:09;;;;;;;;;;;15.60;89.30;;;;;;5111959;28;19908;-68
2022/08/30 13:27:36;;;;;;;;;;;15.60;89.50;;;;;;5111911;28;20033;-69
2022/08/30 13:30:14;;;;;;;;;;;15.50;89.50;;;;;;5111309;28;19908;-68
2022/08/30 13:32:41;;;;;;;;;;;15.60;89.60;;;;;;5109597;28;19916;-70
2022/08/30 13:35:09;;;;;;;;;;;15.50;90.00;;;;;;5110134;28;19927;-69
2022/08/30 13:37:35;;;;;;;;;;;15.40;90.40;;;;;;5112059;28;19918;-68
2022/08/30 13:40:03;;;;;;;;;;;15.40;90.20;;;;;;5111171;28;20502;-69
2022/08/30 13:42:29;;;;;;;;;;;15.40;90.10;;;;;;5111655;28;19912;-69
2022/08/30 13:44:56;;;;;;;;;;;15.30;90.10;;;;;;5108804;28;20363;-71
2022/08/30 13:47:23;;;;;;;;;;;15.30;90.20;;;;;;5111928;28;19950;-68
2022/08/30 13:49:49;;;;;;;;;;;15.30;90.10;;;;;;5111732;28;19908;-69
2022/08/30 13:52:18;;;;;;;;;;;15.30;90.20;;;;;;5111793;28;20356;-69
2022/08/30 13:54:45;;;;;;;;;;;15.30;90.40;;;;;;5111040;28;19918;-69
2022/08/30 13:57:11;;;;;;;;;;;15.20;90.30;;;;;;5111124;28;20409;-69
2022/08/30 13:59:38;;;;;;;;;;;15.20;90.30;;;;;;5110879;28;19920;-69
2022/08/30 14:02:05;;;;;;;;;;;15.20;90.10;;;;;;5111473;28;19957;-69
2022/08/30 14:04:31;;;;;;;;;;;15.10;90.20;;;;;;5111009;28;19965;-69
2022/08/30 14:06:58;;;;;;;;;;;15.20;90.40;;;;;;5111468;28;19908;-69
2022/08/30 14:09:24;;;;;;;;;;;15.10;90.40;;;;;;5111111;28;19915;-68
2022/08/30 14:11:51;;;;;;;;;;;15.10;90.30;;;;;;5108815;28;19912;-70
2022/08/30 14:14:18;;;;;;;;;;;15.10;90.30;;;;;;5111827;28;20409;-69
2022/08/30 14:16:45;;;;;;;;;;;15.10;90.40;;;;;;5111448;28;19915;-69
2022/08/30 14:19:13;;;;;;;;;;;15.00;90.30;;;;;;5110596;28;19929;-69
2022/08/30 14:21:39;;;;;;;;;;;15.00;90.20;;;;;;5108708;28;19957;-69
2022/08/30 14:24:06;;;;;;;;;;;15.00;90.30;;;;;;5111928;28;19930;-71
2022/08/30 14:26:38;;;;;;;;;;;15.00;90.60;;;;;;5111663;28;20257;-70
2022/08/30 14:29:08;;;;;;;;;;;15.00;90.40;;;;;;5090615;28;20319;-69
2022/08/30 14:31:34;;;;;;;;;;;14.90;90.70;;;;;;5111144;28;19941;-68
2022/08/30 14:34:02;;;;;;;;;;;14.90;90.70;;;;;;5111798;28;19908;-69
2022/08/30 14:36:29;;;;;;;;;;;14.90;90.40;;;;;;5111525;28;19908;-69